Time;durP1;ratioP1;P1;durP2;ratioP2;P2;SDS_P1;SDS_P2;PMS_P1;PMS_P2;Temp;Humidity;BMP_temperature;BMP_pressure;BME280_temperature;BME280_humidity;BME280_pressure;Samples;Min_cycle;Max_cycle;Signal;HPM_P1;HPM_P2
2022/10/11 00:01:49;;;;;;;;;;;11.60;99.90;;;;;;6183301;23;19921;-82
2022/10/11 00:04:16;;;;;;;;;;;11.50;99.90;;;;;;6183143;23;19931;-82
2022/10/11 00:06:42;;;;;;;;;;;11.50;99.90;;;;;;6182290;23;19920;-82
2022/10/11 00:09:13;;;;;;;;;;;11.50;99.90;;;;;;6183082;23;20405;-82
2022/10/11 00:11:40;;;;;;;;;;;11.50;99.90;;;;;;6183403;23;19944;-81
2022/10/11 00:14:07;;;;;;;;;;;11.50;99.90;;;;;;6182771;23;19920;-82
2022/10/11 00:16:34;;;;;;;;;;;11.50;99.90;;;;;;6182381;23;19927;-83
2022/10/11 00:19:00;;;;;;;;;;;11.50;99.90;;;;;;6183073;23;20370;-83
2022/10/11 00:21:27;;;;;;;;;;;11.50;99.90;;;;;;6181855;23;20264;-83
2022/10/11 00:23:54;;;;;;;;;;;11.40;99.90;;;;;;6183347;23;19920;-82
2022/10/11 00:26:20;;;;;;;;;;;11.40;99.90;;;;;;6182364;23;19924;-82
2022/10/11 00:28:50;;;;;;;;;;;11.40;99.90;;;;;;6183017;23;19920;-82
2022/10/11 00:31:16;;;;;;;;;;;11.40;99.90;;;;;;6183207;23;19951;-83
2022/10/11 00:33:43;;;;;;;;;;;11.30;99.90;;;;;;6183587;23;19921;-83
2022/10/11 00:36:13;;;;;;;;;;;11.30;99.90;;;;;;6184736;23;20229;-82
2022/10/11 00:38:40;;;;;;;;;;;11.30;99.90;;;;;;6184246;23;19925;-82
2022/10/11 00:41:06;;;;;;;;;;;11.30;99.90;;;;;;6184582;23;20256;-83
2022/10/11 00:43:33;;;;;;;;;;;11.30;99.90;;;;;;6184296;23;19920;-82
2022/10/11 00:46:05;;;;;;;;;;;11.20;99.90;;;;;;6186276;23;19924;-82
2022/10/11 00:48:38;;;;;;;;;;;11.10;99.90;;;;;;6184337;23;19999;-82
2022/10/11 00:51:09;;;;;;;;;;;11.10;99.90;;;;;;6184665;23;19943;-81
2022/10/11 00:53:35;;;;;;;;;;;11.10;99.90;;;;;;6184053;23;19931;-82
2022/10/11 00:56:05;;;;;;;;;;;11.10;99.90;;;;;;6184179;23;19920;-82
2022/10/11 00:58:34;;;;;;;;;;;11.10;99.90;;;;;;6184404;23;19927;-82
2022/10/11 01:01:01;;;;;;;;;;;11.10;99.90;;;;;;6184683;23;19931;-82
2022/10/11 01:03:29;;;;;;;;;;;11.00;99.90;;;;;;6185551;23;19991;-81
2022/10/11 01:05:56;;;;;;;;;;;11.00;99.90;;;;;;6184828;23;20352;-82
2022/10/11 01:08:23;;;;;;;;;;;11.00;99.90;;;;;;6183847;23;20247;-82
2022/10/11 01:10:50;;;;;;;;;;;10.90;99.90;;;;;;6186420;23;19920;-82
2022/10/11 01:13:44;;;;;;;;;;;10.90;99.90;;;;;;6184273;23;20004;-82
2022/10/11 01:16:11;;;;;;;;;;;11.00;99.90;;;;;;6183949;23;19920;-82
2022/10/11 01:18:38;;;;;;;;;;;10.90;99.90;;;;;;6184272;23;19928;-81
2022/10/11 01:21:07;;;;;;;;;;;10.90;99.90;;;;;;6184260;23;19955;-82
2022/10/11 01:23:40;;;;;;;;;;;10.90;99.90;;;;;;6183465;23;20007;-83
2022/10/11 01:26:10;;;;;;;;;;;10.80;99.90;;;;;;6184198;23;20249;-82
2022/10/11 01:28:49;;;;;;;;;;;10.90;99.90;;;;;;6183570;23;20007;-82
2022/10/11 01:31:25;;;;;;;;;;;10.80;99.90;;;;;;6183947;23;19924;-82
2022/10/11 01:34:00;;;;;;;;;;;10.90;99.90;;;;;;6183842;23;19943;-82
2022/10/11 01:36:31;;;;;;;;;;;10.80;99.90;;;;;;6184824;23;19930;-82
2022/10/11 01:38:58;;;;;;;;;;;10.70;99.90;;;;;;6183226;23;19991;-82
2022/10/11 01:41:27;;;;;;;;;;;10.80;99.90;;;;;;6184142;23;19921;-82
2022/10/11 01:43:56;;;;;;;;;;;10.80;99.90;;;;;;6183585;23;19928;-82
2022/10/11 01:46:23;;;;;;;;;;;10.70;99.90;;;;;;6183716;23;19931;-82
2022/10/11 01:48:52;;;;;;;;;;;10.70;99.90;;;;;;6183628;23;19932;-81
2022/10/11 01:51:21;;;;;;;;;;;10.60;99.90;;;;;;6184276;23;19927;-82
2022/10/11 01:54:03;;;;;;;;;;;10.60;99.90;;;;;;6183460;23;19930;-82
2022/10/11 01:56:41;;;;;;;;;;;10.60;99.90;;;;;;6183847;23;19999;-81
2022/10/11 01:59:08;;;;;;;;;;;10.60;99.90;;;;;;6208420;23;19926;-82
2022/10/11 02:01:41;;;;;;;;;;;10.60;99.90;;;;;;6185091;23;19995;-82
2022/10/11 02:04:16;;;;;;;;;;;10.70;99.90;;;;;;6183541;23;19920;-81
2022/10/11 02:06:49;;;;;;;;;;;10.70;99.90;;;;;;6184245;23;19921;-82
2022/10/11 02:09:23;;;;;;;;;;;10.70;99.90;;;;;;6184803;23;19956;-81
2022/10/11 02:11:51;;;;;;;;;;;10.70;99.90;;;;;;6185375;23;20003;-81
2022/10/11 02:14:23;;;;;;;;;;;10.60;99.90;;;;;;6184805;23;19944;-81
2022/10/11 02:16:56;;;;;;;;;;;10.70;99.90;;;;;;6184020;23;19930;-82
2022/10/11 02:19:26;;;;;;;;;;;10.60;99.90;;;;;;6183482;23;19920;-81
2022/10/11 02:21:55;;;;;;;;;;;10.70;99.90;;;;;;6184060;23;19920;-81
2022/10/11 02:24:27;;;;;;;;;;;10.60;99.90;;;;;;6183050;23;19926;-82
2022/10/11 02:26:55;;;;;;;;;;;10.60;99.90;;;;;;6184215;23;19948;-81
2022/10/11 02:29:26;;;;;;;;;;;10.60;99.90;;;;;;6182548;23;29763;-82
2022/10/11 02:31:55;;;;;;;;;;;10.60;99.90;;;;;;6183765;23;19943;-82
2022/10/11 02:34:24;;;;;;;;;;;10.60;99.90;;;;;;6183400;23;19920;-82
2022/10/11 02:37:00;;;;;;;;;;;10.60;99.90;;;;;;6184075;23;19951;-80
2022/10/11 02:39:38;;;;;;;;;;;10.60;99.90;;;;;;6183377;23;19927;-81
2022/10/11 02:42:08;;;;;;;;;;;10.70;99.90;;;;;;6184162;23;19930;-81
2022/10/11 02:44:37;;;;;;;;;;;10.70;99.90;;;;;;6183919;23;19931;-81
2022/10/11 02:47:04;;;;;;;;;;;10.70;99.90;;;;;;6185073;23;19966;-81
2022/10/11 02:49:31;;;;;;;;;;;10.50;99.90;;;;;;6185474;23;19999;-81
2022/10/11 02:51:58;;;;;;;;;;;10.50;99.90;;;;;;6184520;23;19948;-82
2022/10/11 02:54:25;;;;;;;;;;;10.40;99.90;;;;;;6184293;23;20015;-82
2022/10/11 02:56:51;;;;;;;;;;;10.40;99.90;;;;;;6183292;23;20234;-82
2022/10/11 02:59:18;;;;;;;;;;;10.50;99.90;;;;;;6182621;23;19931;-82
2022/10/11 03:01:45;;;;;;;;;;;10.50;99.90;;;;;;6183922;23;20007;-82
2022/10/11 03:04:12;;;;;;;;;;;10.60;99.90;;;;;;6182774;23;20260;-82
2022/10/11 03:06:39;;;;;;;;;;;10.60;99.90;;;;;;6183434;23;20341;-82
2022/10/11 03:09:06;;;;;;;;;;;10.50;99.90;;;;;;6182971;23;20252;-81
2022/10/11 03:11:32;;;;;;;;;;;10.40;99.90;;;;;;6183510;23;19970;-81
2022/10/11 03:13:59;;;;;;;;;;;10.30;99.90;;;;;;6183342;23;20234;-82
2022/10/11 03:16:26;;;;;;;;;;;10.30;99.90;;;;;;6183076;23;19920;-82
2022/10/11 03:18:52;;;;;;;;;;;10.30;99.90;;;;;;6183654;23;20325;-82
2022/10/11 03:21:19;;;;;;;;;;;10.30;99.90;;;;;;6182729;23;19959;-82
2022/10/11 03:23:46;;;;;;;;;;;10.40;99.90;;;;;;6183609;23;19920;-81
2022/10/11 03:26:13;;;;;;;;;;;10.30;99.90;;;;;;6182634;23;20003;-82
2022/10/11 03:28:39;;;;;;;;;;;10.30;99.90;;;;;;6183509;23;19920;-82
2022/10/11 03:31:07;;;;;;;;;;;10.20;99.90;;;;;;6183619;23;20257;-82
2022/10/11 03:33:33;;;;;;;;;;;10.20;99.90;;;;;;6182925;23;19990;-82
2022/10/11 03:36:00;;;;;;;;;;;10.20;99.90;;;;;;6184799;23;19944;-81
2022/10/11 03:38:27;;;;;;;;;;;10.30;99.90;;;;;;6182089;23;19920;-82
2022/10/11 03:40:54;;;;;;;;;;;10.20;99.90;;;;;;6183332;23;19927;-82
2022/10/11 03:43:20;;;;;;;;;;;10.30;99.90;;;;;;6182329;23;19924;-82
2022/10/11 03:45:47;;;;;;;;;;;10.30;99.90;;;;;;6183229;23;19920;-81
2022/10/11 03:48:14;;;;;;;;;;;10.30;99.90;;;;;;6182125;23;20286;-82
2022/10/11 03:50:41;;;;;;;;;;;10.30;99.90;;;;;;6184724;23;20011;-81
2022/10/11 03:53:07;;;;;;;;;;;10.30;99.90;;;;;;6184610;23;19920;-81
2022/10/11 03:55:36;;;;;;;;;;;10.20;99.90;;;;;;6182320;23;20369;-81
2022/10/11 03:58:03;;;;;;;;;;;10.20;99.90;;;;;;6182791;23;20057;-81
2022/10/11 04:00:29;;;;;;;;;;;10.20;99.90;;;;;;6182546;23;19930;-81
2022/10/11 04:02:56;;;;;;;;;;;10.10;99.90;;;;;;6184230;23;19995;-81
2022/10/11 04:05:23;;;;;;;;;;;10.10;99.90;;;;;;6182572;23;20045;-81
2022/10/11 04:07:50;;;;;;;;;;;10.10;99.90;;;;;;6183293;23;19955;-81
2022/10/11 04:10:16;;;;;;;;;;;10.10;99.90;;;;;;6184628;23;19926;-81
2022/10/11 04:12:43;;;;;;;;;;;10.10;99.90;;;;;;6184789;23;19971;-81
2022/10/11 04:15:13;;;;;;;;;;;10.20;99.90;;;;;;6185181;23;19999;-81
2022/10/11 04:17:40;;;;;;;;;;;10.20;99.90;;;;;;6184664;23;19942;-82
2022/10/11 04:20:07;;;;;;;;;;;10.10;99.90;;;;;;6186896;23;19920;-82
2022/10/11 04:22:33;;;;;;;;;;;10.10;99.90;;;;;;6184230;23;19920;-81
2022/10/11 04:25:00;;;;;;;;;;;10.10;99.90;;;;;;6185229;23;19951;-82
2022/10/11 04:27:27;;;;;;;;;;;10.10;99.90;;;;;;6185721;23;19920;-81
2022/10/11 04:29:54;;;;;;;;;;;10.10;99.90;;;;;;6184848;23;19920;-81
2022/10/11 04:32:21;;;;;;;;;;;10.00;99.90;;;;;;6184153;23;19942;-81
2022/10/11 04:34:48;;;;;;;;;;;9.90;99.90;;;;;;6185069;23;19995;-81
2022/10/11 04:37:14;;;;;;;;;;;10.00;99.90;;;;;;6184984;23;19925;-81
2022/10/11 04:39:41;;;;;;;;;;;10.00;99.90;;;;;;6184423;23;20360;-81
2022/10/11 04:42:08;;;;;;;;;;;10.00;99.90;;;;;;6185061;23;19991;-81
2022/10/11 04:44:34;;;;;;;;;;;10.00;99.90;;;;;;6184195;23;20222;-81
2022/10/11 04:47:01;;;;;;;;;;;10.10;99.90;;;;;;6184966;23;20256;-81
2022/10/11 04:49:28;;;;;;;;;;;10.10;99.90;;;;;;6184104;23;19920;-81
2022/10/11 04:51:55;;;;;;;;;;;10.10;99.90;;;;;;6185036;23;19987;-81
2022/10/11 04:54:21;;;;;;;;;;;10.00;99.90;;;;;;6185365;23;19940;-81
2022/10/11 04:56:48;;;;;;;;;;;9.90;99.90;;;;;;6184461;23;19920;-81
2022/10/11 04:59:15;;;;;;;;;;;9.80;99.90;;;;;;6184469;23;19924;-82
2022/10/11 05:01:41;;;;;;;;;;;9.70;99.90;;;;;;6183775;23;19948;-82
2022/10/11 05:04:08;;;;;;;;;;;9.70;99.90;;;;;;6184486;23;19921;-82
2022/10/11 05:06:35;;;;;;;;;;;9.70;99.90;;;;;;6184078;23;19954;-81
2022/10/11 05:09:02;;;;;;;;;;;9.70;99.90;;;;;;6184551;23;19991;-81
2022/10/11 05:11:29;;;;;;;;;;;9.70;99.90;;;;;;6183663;23;19924;-81
2022/10/11 05:13:56;;;;;;;;;;;9.70;99.90;;;;;;6184613;23;19944;-81
2022/10/11 05:16:22;;;;;;;;;;;9.70;99.90;;;;;;6183928;23;19997;-81
2022/10/11 05:18:49;;;;;;;;;;;9.70;99.90;;;;;;6184096;23;19999;-81
2022/10/11 05:21:17;;;;;;;;;;;9.70;99.90;;;;;;6184370;23;19991;-81
2022/10/11 05:23:45;;;;;;;;;;;9.70;99.90;;;;;;6184847;23;19926;-81
2022/10/11 05:26:12;;;;;;;;;;;9.70;99.90;;;;;;6184431;23;19920;-82
2022/10/11 05:28:38;;;;;;;;;;;9.70;99.90;;;;;;6183548;23;19960;-81
2022/10/11 05:31:05;;;;;;;;;;;9.60;99.90;;;;;;6184542;23;20004;-81
2022/10/11 05:33:32;;;;;;;;;;;9.60;99.90;;;;;;6183633;23;20007;-81
2022/10/11 05:35:59;;;;;;;;;;;9.70;99.90;;;;;;6184433;23;19956;-81
2022/10/11 05:38:26;;;;;;;;;;;9.80;99.90;;;;;;6183388;23;20003;-81
2022/10/11 05:40:53;;;;;;;;;;;9.80;99.90;;;;;;6184247;23;19927;-81
2022/10/11 05:43:20;;;;;;;;;;;9.80;99.90;;;;;;6183834;23;19924;-81
2022/10/11 05:45:46;;;;;;;;;;;9.80;99.90;;;;;;6208598;23;20315;-81
2022/10/11 05:48:13;;;;;;;;;;;9.90;99.90;;;;;;6184101;23;19952;-81
2022/10/11 05:50:40;;;;;;;;;;;9.90;99.90;;;;;;6182930;23;19928;-81
2022/10/11 05:53:07;;;;;;;;;;;9.90;99.90;;;;;;6184176;23;19943;-81
2022/10/11 05:55:34;;;;;;;;;;;9.90;99.90;;;;;;6183146;23;19987;-81
2022/10/11 05:58:01;;;;;;;;;;;9.90;99.90;;;;;;6183957;23;19924;-81
2022/10/11 06:00:27;;;;;;;;;;;9.90;99.90;;;;;;6182460;23;19931;-81
2022/10/11 06:02:54;;;;;;;;;;;10.00;99.90;;;;;;6183536;23;20042;-81
2022/10/11 06:05:21;;;;;;;;;;;10.00;99.90;;;;;;6184028;23;19990;-81
2022/10/11 06:07:47;;;;;;;;;;;10.00;99.90;;;;;;6183210;23;19920;-81
2022/10/11 06:10:14;;;;;;;;;;;10.00;99.90;;;;;;6182730;23;19924;-81
2022/10/11 06:12:41;;;;;;;;;;;10.10;99.90;;;;;;6183412;23;19964;-81
2022/10/11 06:15:09;;;;;;;;;;;10.10;99.90;;;;;;6185326;23;19927;-81
2022/10/11 06:17:36;;;;;;;;;;;10.10;99.90;;;;;;6182826;23;19967;-81
2022/10/11 06:20:03;;;;;;;;;;;10.20;99.90;;;;;;6184025;23;19920;-81
2022/10/11 06:22:30;;;;;;;;;;;10.20;99.90;;;;;;6183164;23;19927;-81
2022/10/11 06:24:56;;;;;;;;;;;10.20;99.90;;;;;;6183253;23;19920;-81
2022/10/11 06:27:23;;;;;;;;;;;10.30;99.90;;;;;;6183723;23;19926;-81
2022/10/11 06:29:50;;;;;;;;;;;10.30;99.90;;;;;;6184427;23;19924;-81
2022/10/11 06:32:17;;;;;;;;;;;10.30;99.90;;;;;;6182973;23;19947;-81
2022/10/11 06:34:43;;;;;;;;;;;10.40;99.90;;;;;;6182574;23;19995;-81
2022/10/11 06:37:10;;;;;;;;;;;10.40;99.90;;;;;;6183496;23;19928;-81
2022/10/11 06:39:37;;;;;;;;;;;10.50;99.90;;;;;;6183886;23;19926;-80
2022/10/11 06:42:03;;;;;;;;;;;10.50;99.90;;;;;;6182951;23;19927;-81
2022/10/11 06:44:30;;;;;;;;;;;10.50;99.90;;;;;;6182399;23;19928;-81
2022/10/11 06:46:57;;;;;;;;;;;10.60;99.90;;;;;;6181574;23;19987;-81
2022/10/11 06:49:23;;;;;;;;;;;10.60;99.90;;;;;;6183185;23;20278;-81
2022/10/11 06:51:50;;;;;;;;;;;10.70;99.90;;;;;;6181870;23;19991;-82
2022/10/11 06:54:17;;;;;;;;;;;10.70;99.90;;;;;;6183254;23;19952;-82
2022/10/11 06:56:44;;;;;;;;;;;10.80;99.90;;;;;;6181553;23;19942;-81
2022/10/11 06:59:12;;;;;;;;;;;10.80;99.90;;;;;;6182832;23;19924;-81
2022/10/11 07:01:39;;;;;;;;;;;10.90;99.90;;;;;;6181578;23;20018;-81
2022/10/11 07:04:06;;;;;;;;;;;10.90;99.90;;;;;;6183120;23;19924;-81
2022/10/11 07:06:35;;;;;;;;;;;11.00;99.90;;;;;;6181790;23;19926;-80
2022/10/11 07:09:02;;;;;;;;;;;11.10;99.90;;;;;;6182991;23;19958;-81
2022/10/11 07:11:29;;;;;;;;;;;11.20;99.90;;;;;;6182310;23;20356;-80
2022/10/11 07:13:57;;;;;;;;;;;11.20;99.90;;;;;;6183335;23;19925;-81
2022/10/11 07:16:24;;;;;;;;;;;11.30;99.90;;;;;;6182810;23;20359;-82
2022/10/11 07:18:52;;;;;;;;;;;11.40;99.90;;;;;;6182347;23;19990;-81
2022/10/11 07:21:26;;;;;;;;;;;11.40;99.90;;;;;;6183574;23;20329;-82
2022/10/11 07:23:52;;;;;;;;;;;11.50;99.90;;;;;;6182343;23;20359;-82
2022/10/11 07:26:19;;;;;;;;;;;11.60;99.90;;;;;;6183409;23;19943;-81
2022/10/11 07:28:46;;;;;;;;;;;11.70;99.90;;;;;;6182324;23;19995;-81
2022/10/11 07:31:14;;;;;;;;;;;11.70;99.90;;;;;;6182989;23;19979;-82
2022/10/11 07:33:41;;;;;;;;;;;11.80;99.90;;;;;;6182018;23;20003;-81
2022/10/11 07:36:08;;;;;;;;;;;11.90;99.90;;;;;;6183125;23;19943;-82
2022/10/11 07:38:37;;;;;;;;;;;11.90;99.90;;;;;;6182027;23;19924;-81
2022/10/11 07:41:04;;;;;;;;;;;12.00;99.90;;;;;;6183361;23;19998;-82
2022/10/11 07:43:31;;;;;;;;;;;12.00;99.90;;;;;;6183462;23;19924;-81
2022/10/11 07:46:02;;;;;;;;;;;12.10;99.90;;;;;;6184388;23;19948;-81
2022/10/11 07:48:30;;;;;;;;;;;12.20;99.90;;;;;;6182408;23;20296;-82
2022/10/11 07:51:17;;;;;;;;;;;12.30;99.90;;;;;;6182679;23;20409;-82
2022/10/11 07:53:45;;;;;;;;;;;12.50;99.90;;;;;;6182227;23;20308;-82
2022/10/11 07:56:13;;;;;;;;;;;12.60;99.90;;;;;;6184149;23;19927;-82
2022/10/11 07:58:40;;;;;;;;;;;12.80;99.90;;;;;;6182534;23;19924;-81
2022/10/11 08:01:08;;;;;;;;;;;13.10;99.90;;;;;;6183092;23;20304;-82
2022/10/11 08:03:35;;;;;;;;;;;13.40;99.90;;;;;;6182270;23;20305;-82
2022/10/11 08:06:03;;;;;;;;;;;13.60;99.90;;;;;;6183910;23;19940;-82
2022/10/11 08:08:31;;;;;;;;;;;13.80;99.90;;;;;;6182293;23;20230;-83
2022/10/11 08:10:58;;;;;;;;;;;13.90;99.90;;;;;;6182864;23;19920;-82
2022/10/11 08:13:25;;;;;;;;;;;14.00;99.90;;;;;;6183121;23;19920;-83
2022/10/11 08:15:52;;;;;;;;;;;14.20;99.90;;;;;;6182291;23;19924;-82
2022/10/11 08:18:18;;;;;;;;;;;14.50;99.90;;;;;;6180606;23;20310;-82
2022/10/11 08:20:45;;;;;;;;;;;14.70;99.90;;;;;;6182044;23;20235;-82
2022/10/11 08:23:12;;;;;;;;;;;14.80;99.90;;;;;;6183002;23;19943;-82
2022/10/11 08:25:40;;;;;;;;;;;15.00;99.90;;;;;;6182401;23;20281;-82
2022/10/11 08:28:07;;;;;;;;;;;15.20;99.90;;;;;;6182414;23;19928;-82
2022/10/11 08:30:34;;;;;;;;;;;15.50;99.90;;;;;;6182390;23;19921;-82
2022/10/11 08:33:01;;;;;;;;;;;15.70;99.90;;;;;;6182843;23;19920;-83
2022/10/11 08:35:36;;;;;;;;;;;15.80;99.90;;;;;;6182260;23;19944;-83
2022/10/11 08:38:03;;;;;;;;;;;15.90;99.90;;;;;;6182813;23;19927;-82
2022/10/11 08:40:30;;;;;;;;;;;16.00;99.90;;;;;;6183199;23;19959;-83
2022/10/11 08:43:05;;;;;;;;;;;16.20;99.90;;;;;;6182776;23;19926;-82
2022/10/11 08:45:41;;;;;;;;;;;16.40;99.80;;;;;;6182704;23;19944;-82
2022/10/11 08:48:14;;;;;;;;;;;16.60;99.50;;;;;;6183620;23;19920;-82
2022/10/11 08:50:43;;;;;;;;;;;16.80;98.80;;;;;;6183102;23;19948;-83
2022/10/11 08:53:17;;;;;;;;;;;17.00;96.30;;;;;;6181829;23;19942;-83
2022/10/11 08:55:47;;;;;;;;;;;17.10;95.40;;;;;;6184508;23;19920;-82
2022/10/11 08:58:16;;;;;;;;;;;17.30;95.50;;;;;;6183742;23;20248;-83
2022/10/11 09:00:43;;;;;;;;;;;17.50;93.90;;;;;;6185817;23;19935;-83
2022/10/11 09:03:20;;;;;;;;;;;17.50;92.20;;;;;;6183674;23;20786;-84
2022/10/11 09:05:56;;;;;;;;;;;17.70;93.20;;;;;;6184443;23;19921;-83
2022/10/11 09:08:28;;;;;;;;;;;17.70;91.50;;;;;;6183906;23;19955;-83
2022/10/11 09:11:18;;;;;;;;;;;17.80;91.90;;;;;;6185157;23;19920;-83
2022/10/11 09:14:03;;;;;;;;;;;17.90;90.30;;;;;;6172799;23;20309;-84
2022/10/11 09:16:35;;;;;;;;;;;17.90;88.70;;;;;;6183974;23;19920;-83
2022/10/11 09:19:08;;;;;;;;;;;18.10;90.00;;;;;;6184258;23;20006;-83
2022/10/11 09:21:47;;;;;;;;;;;18.10;86.90;;;;;;6183823;23;19990;-83
2022/10/11 09:24:20;;;;;;;;;;;17.90;86.70;;;;;;6185024;23;19927;-83
2022/10/11 09:26:58;;;;;;;;;;;18.00;88.70;;;;;;6183520;23;19942;-84
2022/10/11 09:29:26;;;;;;;;;;;18.00;85.00;;;;;;6183582;23;19924;-84
2022/10/11 09:31:53;;;;;;;;;;;18.20;84.10;;;;;;6185312;23;19991;-84
2022/10/11 09:34:22;;;;;;;;;;;18.30;85.10;;;;;;6183927;23;19924;-83
2022/10/11 09:36:59;;;;;;;;;;;18.50;80.30;;;;;;6183535;23;19944;-84
2022/10/11 09:39:28;;;;;;;;;;;18.60;78.70;;;;;;6183162;23;20007;-84
2022/10/11 09:41:55;;;;;;;;;;;18.70;78.30;;;;;;6184100;23;19924;-84
2022/10/11 09:44:23;;;;;;;;;;;18.90;77.00;;;;;;6184322;23;20276;-84
2022/10/11 09:46:50;;;;;;;;;;;19.00;75.10;;;;;;6183495;23;19995;-84
2022/10/11 09:49:18;;;;;;;;;;;18.80;73.30;;;;;;6184245;23;19944;-84
2022/10/11 09:51:49;;;;;;;;;;;18.80;79.70;;;;;;6183545;23;20364;-84
2022/10/11 09:54:17;;;;;;;;;;;19.00;78.50;;;;;;6181605;23;19995;-84
2022/10/11 09:56:44;;;;;;;;;;;19.20;74.30;;;;;;6184084;23;19920;-83
2022/10/11 09:59:20;;;;;;;;;;;19.30;77.80;;;;;;6183120;23;20006;-84
2022/10/11 10:01:47;;;;;;;;;;;19.30;78.40;;;;;;6183090;23;20352;-84
2022/10/11 10:04:18;;;;;;;;;;;19.20;81.20;;;;;;6183363;23;19921;-84
2022/10/11 10:06:44;;;;;;;;;;;19.30;80.30;;;;;;6181136;23;20003;-84
2022/10/11 10:09:25;;;;;;;;;;;19.50;80.50;;;;;;6183410;23;20393;-84
2022/10/11 10:11:52;;;;;;;;;;;19.70;80.50;;;;;;6183166;23;19921;-84
2022/10/11 10:14:37;;;;;;;;;;;19.80;78.30;;;;;;6184461;23;19960;-85
2022/10/11 10:17:07;;;;;;;;;;;19.90;74.60;;;;;;6183306;23;19991;-84
2022/10/11 10:19:45;;;;;;;;;;;19.80;77.30;;;;;;6182753;23;19927;-84
2022/10/11 10:22:17;;;;;;;;;;;19.90;76.60;;;;;;6183057;23;20015;-84
2022/10/11 10:24:45;;;;;;;;;;;20.00;75.00;;;;;;6183382;23;19942;-84
2022/10/11 10:27:16;;;;;;;;;;;20.20;75.60;;;;;;6183437;23;19991;-84
2022/10/11 10:29:58;;;;;;;;;;;20.10;75.10;;;;;;6183614;23;19992;-84
2022/10/11 10:32:27;;;;;;;;;;;20.10;74.30;;;;;;6184471;23;19971;-84
2022/10/11 10:35:15;;;;;;;;;;;20.10;71.60;;;;;;6183944;23;19952;-84
2022/10/11 10:38:05;;;;;;;;;;;20.20;74.10;;;;;;6208207;23;19926;-84
2022/10/11 10:40:37;;;;;;;;;;;20.30;70.70;;;;;;6182721;23;19927;-84
2022/10/11 10:43:04;;;;;;;;;;;20.40;68.40;;;;;;6183258;23;19955;-84
2022/10/11 10:45:43;;;;;;;;;;;20.40;66.80;;;;;;6182456;23;19940;-84
2022/10/11 10:48:09;;;;;;;;;;;20.30;67.10;;;;;;6184252;23;19922;-85
2022/10/11 10:50:39;;;;;;;;;;;20.40;68.20;;;;;;6182532;23;20416;-85
2022/10/11 10:53:19;;;;;;;;;;;20.40;69.70;;;;;;6183103;23;19924;-84
2022/10/11 10:55:50;;;;;;;;;;;20.50;69.40;;;;;;6182332;23;19978;-84
2022/10/11 10:58:23;;;;;;;;;;;20.60;64.80;;;;;;6183995;23;19920;-85
2022/10/11 11:01:20;;;;;;;;;;;20.60;65.80;;;;;;6183483;23;20003;-85
2022/10/11 11:03:51;;;;;;;;;;;20.90;68.60;;;;;;6169853;23;19920;-84
2022/10/11 11:06:25;;;;;;;;;;;21.20;64.70;;;;;;6183368;23;19920;-84
2022/10/11 11:08:58;;;;;;;;;;;21.30;65.20;;;;;;6182886;23;19992;-84
2022/10/11 11:11:43;;;;;;;;;;;21.30;64.00;;;;;;6185059;23;19920;-84
2022/10/11 11:14:29;;;;;;;;;;;21.20;62.40;;;;;;6181910;23;19924;-83
2022/10/11 11:17:04;;;;;;;;;;;21.30;62.50;;;;;;6184522;23;20264;-84
2022/10/11 11:19:37;;;;;;;;;;;21.40;64.60;;;;;;6188516;23;19920;-84
2022/10/11 11:22:13;;;;;;;;;;;21.70;65.80;;;;;;6182554;23;20238;-84
2022/10/11 11:24:46;;;;;;;;;;;21.60;63.80;;;;;;6185182;23;19920;-84
2022/10/11 11:27:31;;;;;;;;;;;21.70;62.60;;;;;;6186323;23;19995;-83
2022/10/11 11:30:12;;;;;;;;;;;21.60;60.40;;;;;;6187587;23;20253;-84
2022/10/11 11:32:45;;;;;;;;;;;21.70;60.00;;;;;;6188593;23;19964;-83
2022/10/11 11:35:24;;;;;;;;;;;21.90;59.90;;;;;;6198362;23;19931;-83
2022/10/11 11:37:52;;;;;;;;;;;22.00;61.30;;;;;;6197000;23;19931;-84
2022/10/11 11:40:33;;;;;;;;;;;22.30;60.50;;;;;;6182618;23;20304;-84
2022/10/11 11:43:03;;;;;;;;;;;22.00;58.30;;;;;;6183256;23;20345;-84
2022/10/11 11:45:44;;;;;;;;;;;21.70;59.60;;;;;;6183442;23;20004;-84
2022/10/11 11:48:23;;;;;;;;;;;21.80;59.50;;;;;;6186999;23;19944;-84
2022/10/11 11:50:55;;;;;;;;;;;21.80;58.50;;;;;;6185415;23;19982;-83
2022/10/11 11:53:28;;;;;;;;;;;22.10;60.10;;;;;;6183378;23;19991;-84
2022/10/11 11:56:02;;;;;;;;;;;22.10;57.70;;;;;;6183977;23;20230;-84
2022/10/11 11:58:28;;;;;;;;;;;22.20;58.40;;;;;;6183996;23;19926;-84
2022/10/11 12:00:55;;;;;;;;;;;22.30;58.70;;;;;;6184586;23;19924;-84
2022/10/11 12:03:42;;;;;;;;;;;22.50;59.60;;;;;;6186150;23;20234;-84
2022/10/11 12:06:15;;;;;;;;;;;22.40;57.70;;;;;;6183986;23;20028;-84
2022/10/11 12:08:46;;;;;;;;;;;22.50;56.50;;;;;;6187014;23;20003;-84
2022/10/11 12:11:26;;;;;;;;;;;22.50;56.80;;;;;;6183882;23;19991;-84
2022/10/11 12:14:02;;;;;;;;;;;22.40;55.70;;;;;;6183140;23;20397;-84
2022/10/11 12:16:29;;;;;;;;;;;22.10;57.30;;;;;;6186714;23;20313;-84
2022/10/11 12:18:56;;;;;;;;;;;22.30;58.90;;;;;;6188452;23;19943;-83
2022/10/11 12:21:29;;;;;;;;;;;22.20;57.60;;;;;;6187907;23;19931;-83
2022/10/11 12:23:57;;;;;;;;;;;22.20;57.50;;;;;;6180486;23;19924;-83
2022/10/11 12:26:27;;;;;;;;;;;22.50;58.60;;;;;;6182764;23;19947;-83
2022/10/11 12:28:59;;;;;;;;;;;22.60;56.10;;;;;;6182109;23;19947;-83
2022/10/11 12:31:28;;;;;;;;;;;22.70;55.80;;;;;;6188322;23;19944;-84
2022/10/11 12:34:00;;;;;;;;;;;22.50;55.80;;;;;;6183292;23;19942;-84
2022/10/11 12:36:28;;;;;;;;;;;22.80;58.00;;;;;;6186110;23;19920;-84
2022/10/11 12:39:13;;;;;;;;;;;22.90;56.30;;;;;;6184369;23;19944;-84
2022/10/11 12:41:46;;;;;;;;;;;23.10;55.00;;;;;;6184651;23;19959;-84
2022/10/11 12:44:19;;;;;;;;;;;22.70;54.00;;;;;;6185216;23;20004;-83
2022/10/11 12:46:49;;;;;;;;;;;22.50;56.60;;;;;;6185948;23;20255;-84
2022/10/11 12:49:15;;;;;;;;;;;22.80;56.20;;;;;;6181801;23;19954;-84
2022/10/11 12:51:42;;;;;;;;;;;22.90;55.40;;;;;;6183243;23;19921;-83
2022/10/11 12:54:22;;;;;;;;;;;22.90;54.50;;;;;;6182847;23;19944;-83
2022/10/11 12:57:00;;;;;;;;;;;22.80;55.50;;;;;;6181910;23;19920;-84
2022/10/11 12:59:30;;;;;;;;;;;23.00;56.00;;;;;;6182916;23;19991;-84
2022/10/11 13:01:57;;;;;;;;;;;23.20;54.70;;;;;;6183472;23;19987;-84
2022/10/11 13:04:25;;;;;;;;;;;23.20;53.40;;;;;;6184045;23;19951;-83
2022/10/11 13:06:54;;;;;;;;;;;22.70;55.10;;;;;;6184148;23;19934;-83
2022/10/11 13:09:27;;;;;;;;;;;23.00;55.90;;;;;;6183768;23;19990;-83
2022/10/11 13:12:08;;;;;;;;;;;23.20;55.90;;;;;;6184306;23;20248;-84
2022/10/11 13:14:42;;;;;;;;;;;23.40;54.00;;;;;;6184024;23;20341;-84
2022/10/11 13:17:18;;;;;;;;;;;23.60;54.10;;;;;;6184143;23;20222;-84
2022/10/11 13:19:45;;;;;;;;;;;23.80;53.40;;;;;;6182992;23;19942;-84
2022/10/11 13:22:17;;;;;;;;;;;23.80;52.90;;;;;;6183578;23;19991;-84
2022/10/11 13:24:43;;;;;;;;;;;23.90;52.90;;;;;;6183552;23;19962;-84
2022/10/11 13:27:21;;;;;;;;;;;24.10;52.50;;;;;;6183647;23;19955;-84
2022/10/11 13:29:49;;;;;;;;;;;24.00;52.70;;;;;;6183562;23;19920;-84
2022/10/11 13:32:23;;;;;;;;;;;24.00;52.20;;;;;;6183503;23;19924;-84
2022/10/11 13:34:55;;;;;;;;;;;24.10;52.40;;;;;;6185604;23;19928;-84
2022/10/11 13:37:27;;;;;;;;;;;24.00;53.30;;;;;;6183195;23;19926;-84
2022/10/11 13:39:55;;;;;;;;;;;24.00;52.20;;;;;;6183991;23;19999;-84
2022/10/11 13:42:29;;;;;;;;;;;24.10;52.50;;;;;;6183866;23;19927;-84
2022/10/11 13:44:57;;;;;;;;;;;24.10;51.80;;;;;;6183227;23;20248;-84
2022/10/11 13:47:26;;;;;;;;;;;24.30;51.90;;;;;;6183530;23;19964;-84
2022/10/11 13:50:17;;;;;;;;;;;24.30;52.00;;;;;;6183086;23;19920;-84
2022/10/11 13:52:53;;;;;;;;;;;24.00;51.30;;;;;;6187493;23;19968;-83
2022/10/11 13:55:39;;;;;;;;;;;23.70;53.60;;;;;;6190278;23;20381;-82
2022/10/11 13:58:12;;;;;;;;;;;23.40;54.20;;;;;;6190112;23;19924;-84
2022/10/11 14:00:54;;;;;;;;;;;23.30;55.10;;;;;;6183327;23;19925;-84
2022/10/11 14:03:23;;;;;;;;;;;23.50;53.60;;;;;;6183498;23;19970;-84
2022/10/11 14:05:57;;;;;;;;;;;23.50;54.40;;;;;;6183537;23;20011;-84
2022/10/11 14:08:33;;;;;;;;;;;23.00;55.30;;;;;;6183670;23;19995;-85
2022/10/11 14:11:00;;;;;;;;;;;22.90;56.30;;;;;;6183088;23;20325;-84
2022/10/11 14:13:32;;;;;;;;;;;22.60;56.30;;;;;;6183984;23;20253;-85
2022/10/11 14:16:06;;;;;;;;;;;22.60;58.80;;;;;;6183193;23;19991;-85
2022/10/11 14:18:38;;;;;;;;;;;22.30;57.50;;;;;;6183662;23;19932;-84
2022/10/11 14:21:23;;;;;;;;;;;22.20;56.10;;;;;;6182816;23;19926;-84
2022/10/11 14:23:51;;;;;;;;;;;22.40;57.00;;;;;;6183976;23;19994;-84
2022/10/11 14:26:19;;;;;;;;;;;22.60;56.20;;;;;;6187422;23;19924;-83
2022/10/11 14:28:50;;;;;;;;;;;22.60;55.20;;;;;;6183440;23;19968;-83
2022/10/11 14:31:17;;;;;;;;;;;22.50;56.80;;;;;;6188683;23;19920;-82
2022/10/11 14:33:44;;;;;;;;;;;22.40;56.60;;;;;;6186073;23;19924;-83
2022/10/11 14:36:10;;;;;;;;;;;22.30;57.20;;;;;;6187019;23;19924;-82